sensor_id;sensor_type;location;lat;lon;timestamp;P1;durP1;ratioP1;P2;durP2;ratioP2
10299;SDS011;5195;48.562;9.192;2022-12-18T00:01:29;30.47;;;18.73;;
10299;SDS011;5195;48.562;9.192;2022-12-18T00:04:05;37.57;;;19.63;;
10299;SDS011;5195;48.562;9.192;2022-12-18T00:06:40;43.73;;;29.27;;
10299;SDS011;5195;48.562;9.192;2022-12-18T00:09:17;42.88;;;30.70;;
10299;SDS011;5195;48.562;9.192;2022-12-18T00:11:53;45.95;;;31.27;;
10299;SDS011;5195;48.562;9.192;2022-12-18T00:14:29;46.67;;;31.70;;
10299;SDS011;5195;48.562;9.192;2022-12-18T00:17:05;47.97;;;32.73;;
10299;SDS011;5195;48.562;9.192;2022-12-18T00:19:41;40.17;;;23.77;;
10299;SDS011;5195;48.562;9.192;2022-12-18T00:22:16;46.40;;;22.23;;
10299;SDS011;5195;48.562;9.192;2022-12-18T00:24:52;37.93;;;20.67;;
10299;SDS011;5195;48.562;9.192;2022-12-18T00:27:28;44.37;;;28.93;;
10299;SDS011;5195;48.562;9.192;2022-12-18T00:30:04;39.33;;;22.70;;
10299;SDS011;5195;48.562;9.192;2022-12-18T00:32:40;43.77;;;29.77;;
10299;SDS011;5195;48.562;9.192;2022-12-18T00:35:16;41.22;;;29.60;;
10299;SDS011;5195;48.562;9.192;2022-12-18T00:37:52;43.17;;;30.60;;
10299;SDS011;5195;48.562;9.192;2022-12-18T00:40:28;41.53;;;28.83;;
10299;SDS011;5195;48.562;9.192;2022-12-18T00:43:05;34.90;;;21.30;;
10299;SDS011;5195;48.562;9.192;2022-12-18T00:45:40;33.63;;;18.53;;
10299;SDS011;5195;48.562;9.192;2022-12-18T00:48:16;40.17;;;27.93;;
10299;SDS011;5195;48.562;9.192;2022-12-18T00:50:51;41.15;;;29.27;;
10299;SDS011;5195;48.562;9.192;2022-12-18T00:53:27;34.17;;;21.80;;
10299;SDS011;5195;48.562;9.192;2022-12-18T00:56:03;35.60;;;19.33;;
10299;SDS011;5195;48.562;9.192;2022-12-18T00:58:38;39.50;;;28.07;;
10299;SDS011;5195;48.562;9.192;2022-12-18T01:01:14;34.77;;;21.23;;
10299;SDS011;5195;48.562;9.192;2022-12-18T01:03:49;31.27;;;18.37;;
10299;SDS011;5195;48.562;9.192;2022-12-18T01:06:26;40.83;;;28.23;;
10299;SDS011;5195;48.562;9.192;2022-12-18T01:09:02;35.20;;;20.90;;
10299;SDS011;5195;48.562;9.192;2022-12-18T01:11:38;40.50;;;28.10;;
10299;SDS011;5195;48.562;9.192;2022-12-18T01:14:14;44.37;;;29.90;;
10299;SDS011;5195;48.562;9.192;2022-12-18T01:16:50;33.97;;;20.83;;
10299;SDS011;5195;48.562;9.192;2022-12-18T01:19:27;41.75;;;27.52;;
10299;SDS011;5195;48.562;9.192;2022-12-18T01:22:02;31.83;;;20.40;;
10299;SDS011;5195;48.562;9.192;2022-12-18T01:24:38;39.33;;;27.60;;
10299;SDS011;5195;48.562;9.192;2022-12-18T01:27:13;34.53;;;21.17;;
10299;SDS011;5195;48.562;9.192;2022-12-18T01:29:49;31.80;;;19.47;;
10299;SDS011;5195;48.562;9.192;2022-12-18T01:32:25;39.77;;;27.33;;
10299;SDS011;5195;48.562;9.192;2022-12-18T01:35:01;32.17;;;20.70;;
10299;SDS011;5195;48.562;9.192;2022-12-18T01:37:36;31.20;;;19.53;;
10299;SDS011;5195;48.562;9.192;2022-12-18T01:40:12;37.95;;;25.52;;
10299;SDS011;5195;48.562;9.192;2022-12-18T01:42:51;39.00;;;21.07;;
10299;SDS011;5195;48.562;9.192;2022-12-18T01:45:27;29.83;;;17.93;;
10299;SDS011;5195;48.562;9.192;2022-12-18T01:48:03;32.30;;;17.23;;
10299;SDS011;5195;48.562;9.192;2022-12-18T01:50:42;29.27;;;17.60;;
10299;SDS011;5195;48.562;9.192;2022-12-18T01:53:20;39.33;;;26.87;;
10299;SDS011;5195;48.562;9.192;2022-12-18T01:55:56;32.97;;;20.33;;
10299;SDS011;5195;48.562;9.192;2022-12-18T01:58:46;26.13;;;18.43;;
10299;SDS011;5195;48.562;9.192;2022-12-18T02:01:39;30.10;;;17.20;;
10299;SDS011;5195;48.562;9.192;2022-12-18T02:04:23;38.50;;;26.60;;
10299;SDS011;5195;48.562;9.192;2022-12-18T02:09:41;32.43;;;20.83;;
10299;SDS011;5195;48.562;9.192;2022-12-18T02:15:16;39.25;;;26.58;;
10299;SDS011;5195;48.562;9.192;2022-12-18T02:17:57;38.75;;;27.17;;
10299;SDS011;5195;48.562;9.192;2022-12-18T02:20:33;31.70;;;19.93;;
10299;SDS011;5195;48.562;9.192;2022-12-18T02:23:31;33.70;;;25.47;;
10299;SDS011;5195;48.562;9.192;2022-12-18T02:29:06;27.40;;;17.70;;
10299;SDS011;5195;48.562;9.192;2022-12-18T02:31:51;26.83;;;16.83;;
10299;SDS011;5195;48.562;9.192;2022-12-18T02:34:23;34.63;;;25.90;;
10299;SDS011;5195;48.562;9.192;2022-12-18T02:36:59;35.70;;;26.42;;
10299;SDS011;5195;48.562;9.192;2022-12-18T02:39:34;28.17;;;18.87;;
10299;SDS011;5195;48.562;9.192;2022-12-18T02:42:09;27.93;;;16.83;;
10299;SDS011;5195;48.562;9.192;2022-12-18T02:44:46;34.73;;;25.00;;
10299;SDS011;5195;48.562;9.192;2022-12-18T02:47:22;36.05;;;25.92;;
10299;SDS011;5195;48.562;9.192;2022-12-18T02:50:02;28.53;;;19.00;;
10299;SDS011;5195;48.562;9.192;2022-12-18T03:04:26;32.60;;;25.35;;
10299;SDS011;5195;48.562;9.192;2022-12-18T03:07:23;29.50;;;19.07;;
10299;SDS011;5195;48.562;9.192;2022-12-18T03:09:56;29.27;;;16.80;;
10299;SDS011;5195;48.562;9.192;2022-12-18T03:12:35;26.70;;;15.90;;
10299;SDS011;5195;48.562;9.192;2022-12-18T03:15:16;34.65;;;24.52;;
10299;SDS011;5195;48.562;9.192;2022-12-18T03:20:33;30.37;;;18.70;;
10299;SDS011;5195;48.562;9.192;2022-12-18T03:23:12;24.67;;;16.40;;
10299;SDS011;5195;48.562;9.192;2022-12-18T03:25:46;33.20;;;25.62;;
10299;SDS011;5195;48.562;9.192;2022-12-18T03:28:24;34.10;;;26.10;;
10299;SDS011;5195;48.562;9.192;2022-12-18T03:31:01;31.67;;;19.77;;
10299;SDS011;5195;48.562;9.192;2022-12-18T03:36:15;31.90;;;20.13;;
10299;SDS011;5195;48.562;9.192;2022-12-18T03:38:53;35.97;;;26.83;;
10299;SDS011;5195;48.562;9.192;2022-12-18T03:41:30;35.47;;;26.47;;
10299;SDS011;5195;48.562;9.192;2022-12-18T03:44:10;33.53;;;25.85;;
10299;SDS011;5195;48.562;9.192;2022-12-18T03:47:32;30.60;;;20.40;;
10299;SDS011;5195;48.562;9.192;2022-12-18T03:49:47;26.20;;;17.50;;
10299;SDS011;5195;48.562;9.192;2022-12-18T03:52:36;26.50;;;16.70;;
10299;SDS011;5195;48.562;9.192;2022-12-18T03:55:10;35.73;;;26.23;;
10299;SDS011;5195;48.562;9.192;2022-12-18T03:57:45;37.67;;;27.37;;
10299;SDS011;5195;48.562;9.192;2022-12-18T04:00:21;28.73;;;20.10;;
10299;SDS011;5195;48.562;9.192;2022-12-18T04:02:57;31.43;;;18.33;;
10299;SDS011;5195;48.562;9.192;2022-12-18T04:05:33;31.63;;;18.00;;
10299;SDS011;5195;48.562;9.192;2022-12-18T04:08:09;28.40;;;17.30;;
10299;SDS011;5195;48.562;9.192;2022-12-18T04:10:45;26.97;;;16.67;;
10299;SDS011;5195;48.562;9.192;2022-12-18T04:13:40;37.27;;;26.40;;
10299;SDS011;5195;48.562;9.192;2022-12-18T04:16:05;31.83;;;18.93;;
10299;SDS011;5195;48.562;9.192;2022-12-18T04:18:42;29.83;;;17.57;;
10299;SDS011;5195;48.562;9.192;2022-12-18T04:21:17;27.67;;;16.20;;
10299;SDS011;5195;48.562;9.192;2022-12-18T04:23:53;38.88;;;27.23;;
10299;SDS011;5195;48.562;9.192;2022-12-18T04:26:28;45.03;;;29.23;;
10299;SDS011;5195;48.562;9.192;2022-12-18T04:29:04;40.03;;;28.77;;
10299;SDS011;5195;48.562;9.192;2022-12-18T04:31:41;39.87;;;28.80;;
10299;SDS011;5195;48.562;9.192;2022-12-18T04:34:17;33.63;;;20.63;;
10299;SDS011;5195;48.562;9.192;2022-12-18T04:36:53;45.37;;;31.43;;
10299;SDS011;5195;48.562;9.192;2022-12-18T04:39:29;43.13;;;30.10;;
10299;SDS011;5195;48.562;9.192;2022-12-18T04:42:04;40.53;;;28.65;;
10299;SDS011;5195;48.562;9.192;2022-12-18T04:44:40;45.70;;;30.13;;
10299;SDS011;5195;48.562;9.192;2022-12-18T04:47:16;34.63;;;20.83;;
10299;SDS011;5195;48.562;9.192;2022-12-18T04:49:51;33.33;;;20.13;;
10299;SDS011;5195;48.562;9.192;2022-12-18T04:52:28;43.70;;;28.80;;
10299;SDS011;5195;48.562;9.192;2022-12-18T04:55:03;44.50;;;30.37;;
10299;SDS011;5195;48.562;9.192;2022-12-18T04:57:39;43.90;;;30.23;;
10299;SDS011;5195;48.562;9.192;2022-12-18T05:00:15;43.13;;;30.47;;
10299;SDS011;5195;48.562;9.192;2022-12-18T05:02:51;40.42;;;29.67;;
10299;SDS011;5195;48.562;9.192;2022-12-18T05:05:27;38.57;;;21.60;;
10299;SDS011;5195;48.562;9.192;2022-12-18T05:08:02;35.37;;;19.33;;
10299;SDS011;5195;48.562;9.192;2022-12-18T05:10:39;45.50;;;30.15;;
10299;SDS011;5195;48.562;9.192;2022-12-18T05:13:15;50.17;;;31.90;;
10299;SDS011;5195;48.562;9.192;2022-12-18T05:15:51;40.23;;;22.87;;
10299;SDS011;5195;48.562;9.192;2022-12-18T05:18:27;47.50;;;29.87;;
10299;SDS011;5195;48.562;9.192;2022-12-18T05:21:02;45.93;;;29.83;;
10299;SDS011;5195;48.562;9.192;2022-12-18T05:23:38;45.38;;;30.45;;
10299;SDS011;5195;48.562;9.192;2022-12-18T05:26:15;49.10;;;30.60;;
10299;SDS011;5195;48.562;9.192;2022-12-18T05:28:49;52.97;;;32.25;;
10299;SDS011;5195;48.562;9.192;2022-12-18T05:31:25;49.90;;;32.30;;
10299;SDS011;5195;48.562;9.192;2022-12-18T05:34:01;52.17;;;32.10;;
10299;SDS011;5195;48.562;9.192;2022-12-18T05:36:37;49.50;;;30.97;;
10299;SDS011;5195;48.562;9.192;2022-12-18T05:39:13;47.70;;;30.92;;
10299;SDS011;5195;48.562;9.192;2022-12-18T05:41:49;43.33;;;30.77;;
10299;SDS011;5195;48.562;9.192;2022-12-18T05:44:24;37.40;;;21.57;;
10299;SDS011;5195;48.562;9.192;2022-12-18T05:47:00;44.07;;;30.20;;
10299;SDS011;5195;48.562;9.192;2022-12-18T05:49:36;44.95;;;30.25;;
10299;SDS011;5195;48.562;9.192;2022-12-18T05:52:11;41.93;;;28.87;;
10299;SDS011;5195;48.562;9.192;2022-12-18T05:54:47;31.90;;;21.73;;
10299;SDS011;5195;48.562;9.192;2022-12-18T05:57:22;32.70;;;19.47;;
10299;SDS011;5195;48.562;9.192;2022-12-18T05:59:58;31.27;;;17.70;;
10299;SDS011;5195;48.562;9.192;2022-12-18T06:02:34;29.27;;;17.50;;
10299;SDS011;5195;48.562;9.192;2022-12-18T06:05:09;40.97;;;28.03;;
10299;SDS011;5195;48.562;9.192;2022-12-18T06:07:45;32.57;;;19.97;;
10299;SDS011;5195;48.562;9.192;2022-12-18T06:10:21;41.67;;;28.20;;
10299;SDS011;5195;48.562;9.192;2022-12-18T06:12:57;37.27;;;21.97;;
10299;SDS011;5195;48.562;9.192;2022-12-18T06:15:35;39.85;;;27.13;;
10299;SDS011;5195;48.562;9.192;2022-12-18T06:18:09;42.13;;;28.15;;
10299;SDS011;5195;48.562;9.192;2022-12-18T06:20:45;39.75;;;27.42;;
10299;SDS011;5195;48.562;9.192;2022-12-18T06:23:21;41.20;;;27.80;;
10299;SDS011;5195;48.562;9.192;2022-12-18T06:28:55;41.92;;;27.80;;
10299;SDS011;5195;48.562;9.192;2022-12-18T06:31:30;36.38;;;26.87;;
10299;SDS011;5195;48.562;9.192;2022-12-18T06:34:06;39.17;;;27.07;;
10299;SDS011;5195;48.562;9.192;2022-12-18T06:36:42;40.67;;;27.63;;
10299;SDS011;5195;48.562;9.192;2022-12-18T06:39:18;39.33;;;28.10;;
10299;SDS011;5195;48.562;9.192;2022-12-18T06:41:53;36.47;;;22.00;;
10299;SDS011;5195;48.562;9.192;2022-12-18T06:44:31;34.23;;;19.03;;
10299;SDS011;5195;48.562;9.192;2022-12-18T06:47:06;39.87;;;27.33;;
10299;SDS011;5195;48.562;9.192;2022-12-18T06:49:42;34.40;;;21.80;;
10299;SDS011;5195;48.562;9.192;2022-12-18T06:52:18;44.17;;;29.43;;
10299;SDS011;5195;48.562;9.192;2022-12-18T06:54:54;40.20;;;28.53;;
10299;SDS011;5195;48.562;9.192;2022-12-18T06:57:29;36.00;;;21.47;;
10299;SDS011;5195;48.562;9.192;2022-12-18T07:00:05;29.80;;;18.50;;
10299;SDS011;5195;48.562;9.192;2022-12-18T07:02:41;41.28;;;27.00;;
10299;SDS011;5195;48.562;9.192;2022-12-18T07:05:16;38.58;;;27.05;;
10299;SDS011;5195;48.562;9.192;2022-12-18T07:07:52;36.97;;;26.67;;
10299;SDS011;5195;48.562;9.192;2022-12-18T07:10:28;29.90;;;17.33;;
10299;SDS011;5195;48.562;9.192;2022-12-18T07:13:03;27.63;;;16.93;;
10299;SDS011;5195;48.562;9.192;2022-12-18T07:15:39;28.80;;;16.47;;
10299;SDS011;5195;48.562;9.192;2022-12-18T07:18:14;41.70;;;26.63;;
10299;SDS011;5195;48.562;9.192;2022-12-18T07:20:51;43.33;;;28.05;;
10299;SDS011;5195;48.562;9.192;2022-12-18T07:23:26;41.25;;;27.62;;
10299;SDS011;5195;48.562;9.192;2022-12-18T07:26:10;30.33;;;18.10;;
10299;SDS011;5195;48.562;9.192;2022-12-18T07:28:44;39.70;;;26.27;;
10299;SDS011;5195;48.562;9.192;2022-12-18T07:31:20;35.73;;;20.17;;
10299;SDS011;5195;48.562;9.192;2022-12-18T07:33:55;30.60;;;17.53;;
10299;SDS011;5195;48.562;9.192;2022-12-18T07:36:31;36.57;;;18.30;;
10299;SDS011;5195;48.562;9.192;2022-12-18T07:39:07;42.33;;;26.83;;
10299;SDS011;5195;48.562;9.192;2022-12-18T07:41:43;40.80;;;21.63;;
10299;SDS011;5195;48.562;9.192;2022-12-18T07:44:18;32.47;;;18.87;;
10299;SDS011;5195;48.562;9.192;2022-12-18T07:46:55;39.53;;;25.93;;
10299;SDS011;5195;48.562;9.192;2022-12-18T07:49:31;37.73;;;25.43;;
10299;SDS011;5195;48.562;9.192;2022-12-18T07:52:06;35.57;;;18.67;;
10299;SDS011;5195;48.562;9.192;2022-12-18T07:54:42;34.33;;;19.10;;
10299;SDS011;5195;48.562;9.192;2022-12-18T07:57:18;40.63;;;25.97;;
10299;SDS011;5195;48.562;9.192;2022-12-18T07:59:54;44.23;;;28.37;;
10299;SDS011;5195;48.562;9.192;2022-12-18T08:02:33;45.70;;;29.33;;
10299;SDS011;5195;48.562;9.192;2022-12-18T08:05:09;35.10;;;20.40;;
10299;SDS011;5195;48.562;9.192;2022-12-18T08:07:45;28.00;;;17.13;;
10299;SDS011;5195;48.562;9.192;2022-12-18T08:10:20;30.87;;;17.27;;
10299;SDS011;5195;48.562;9.192;2022-12-18T08:12:56;43.13;;;25.57;;
10299;SDS011;5195;48.562;9.192;2022-12-18T08:15:32;42.60;;;28.45;;
10299;SDS011;5195;48.562;9.192;2022-12-18T08:18:08;41.17;;;28.43;;
10299;SDS011;5195;48.562;9.192;2022-12-18T08:20:43;38.67;;;21.67;;
10299;SDS011;5195;48.562;9.192;2022-12-18T08:23:19;39.53;;;23.70;;
10299;SDS011;5195;48.562;9.192;2022-12-18T08:25:55;34.97;;;20.00;;
10299;SDS011;5195;48.562;9.192;2022-12-18T08:28:31;42.27;;;28.80;;
10299;SDS011;5195;48.562;9.192;2022-12-18T08:31:08;48.90;;;28.93;;
10299;SDS011;5195;48.562;9.192;2022-12-18T08:33:43;40.70;;;26.90;;
10299;SDS011;5195;48.562;9.192;2022-12-18T08:36:19;34.07;;;20.30;;
10299;SDS011;5195;48.562;9.192;2022-12-18T08:38:56;38.93;;;26.70;;
10299;SDS011;5195;48.562;9.192;2022-12-18T08:41:31;40.53;;;26.53;;
10299;SDS011;5195;48.562;9.192;2022-12-18T08:44:07;32.67;;;19.77;;
10299;SDS011;5195;48.562;9.192;2022-12-18T08:47:02;47.37;;;34.40;;
10299;SDS011;5195;48.562;9.192;2022-12-18T08:49:38;41.80;;;23.73;;
10299;SDS011;5195;48.562;9.192;2022-12-18T08:52:14;31.00;;;20.07;;
10299;SDS011;5195;48.562;9.192;2022-12-18T08:54:49;29.60;;;17.50;;
10299;SDS011;5195;48.562;9.192;2022-12-18T08:57:25;30.93;;;18.17;;
10299;SDS011;5195;48.562;9.192;2022-12-18T09:00:00;40.43;;;26.50;;
10299;SDS011;5195;48.562;9.192;2022-12-18T09:02:36;38.20;;;26.00;;
10299;SDS011;5195;48.562;9.192;2022-12-18T09:05:12;34.07;;;20.50;;
10299;SDS011;5195;48.562;9.192;2022-12-18T09:07:47;40.57;;;28.00;;
10299;SDS011;5195;48.562;9.192;2022-12-18T09:10:23;39.20;;;27.45;;
10299;SDS011;5195;48.562;9.192;2022-12-18T09:12:59;37.33;;;20.57;;
10299;SDS011;5195;48.562;9.192;2022-12-18T09:15:39;34.50;;;18.87;;
10299;SDS011;5195;48.562;9.192;2022-12-18T09:18:11;29.23;;;16.90;;
10299;SDS011;5195;48.562;9.192;2022-12-18T09:20:47;41.87;;;27.93;;
10299;SDS011;5195;48.562;9.192;2022-12-18T09:23:22;53.57;;;33.20;;
10299;SDS011;5195;48.562;9.192;2022-12-18T09:25:59;43.50;;;30.63;;
10299;SDS011;5195;48.562;9.192;2022-12-18T09:28:34;38.03;;;27.23;;
10299;SDS011;5195;48.562;9.192;2022-12-18T09:31:10;41.17;;;30.20;;
10299;SDS011;5195;48.562;9.192;2022-12-18T09:33:46;39.45;;;29.25;;
10299;SDS011;5195;48.562;9.192;2022-12-18T09:36:21;37.60;;;22.83;;
10299;SDS011;5195;48.562;9.192;2022-12-18T09:38:59;36.60;;;21.50;;
10299;SDS011;5195;48.562;9.192;2022-12-18T09:41:43;32.47;;;19.03;;
10299;SDS011;5195;48.562;9.192;2022-12-18T09:44:35;30.90;;;20.60;;
10299;SDS011;5195;48.562;9.192;2022-12-18T09:47:11;42.23;;;29.53;;
10299;SDS011;5195;48.562;9.192;2022-12-18T09:49:46;43.57;;;30.20;;
10299;SDS011;5195;48.562;9.192;2022-12-18T09:52:29;38.33;;;29.03;;
10299;SDS011;5195;48.562;9.192;2022-12-18T09:57:47;46.80;;;33.03;;
10299;SDS011;5195;48.562;9.192;2022-12-18T10:00:22;42.03;;;31.67;;
10299;SDS011;5195;48.562;9.192;2022-12-18T10:03:08;44.03;;;32.40;;
10299;SDS011;5195;48.562;9.192;2022-12-18T10:05:44;45.60;;;33.27;;
10299;SDS011;5195;48.562;9.192;2022-12-18T10:08:37;49.47;;;35.10;;
10299;SDS011;5195;48.562;9.192;2022-12-18T10:19:52;43.47;;;31.33;;
10299;SDS011;5195;48.562;9.192;2022-12-18T10:25:31;49.20;;;34.28;;
10299;SDS011;5195;48.562;9.192;2022-12-18T10:28:09;46.17;;;33.47;;
10299;SDS011;5195;48.562;9.192;2022-12-18T10:30:43;44.08;;;31.15;;
10299;SDS011;5195;48.562;9.192;2022-12-18T10:33:19;42.60;;;30.60;;
10299;SDS011;5195;48.562;9.192;2022-12-18T10:35:54;40.67;;;26.70;;
10299;SDS011;5195;48.562;9.192;2022-12-18T10:38:30;41.33;;;30.87;;
10299;SDS011;5195;48.562;9.192;2022-12-18T10:41:06;41.83;;;25.50;;
10299;SDS011;5195;48.562;9.192;2022-12-18T10:43:40;38.80;;;23.50;;
10299;SDS011;5195;48.562;9.192;2022-12-18T10:46:17;43.47;;;30.60;;
10299;SDS011;5195;48.562;9.192;2022-12-18T10:48:55;44.30;;;32.03;;
10299;SDS011;5195;48.562;9.192;2022-12-18T10:51:31;41.03;;;31.17;;
10299;SDS011;5195;48.562;9.192;2022-12-18T10:54:17;37.93;;;24.90;;
10299;SDS011;5195;48.562;9.192;2022-12-18T10:56:51;41.03;;;29.43;;
10299;SDS011;5195;48.562;9.192;2022-12-18T10:59:27;38.80;;;25.40;;
10299;SDS011;5195;48.562;9.192;2022-12-18T11:02:07;31.97;;;23.33;;
10299;SDS011;5195;48.562;9.192;2022-12-18T11:04:40;38.47;;;29.03;;
10299;SDS011;5195;48.562;9.192;2022-12-18T11:07:14;35.13;;;23.20;;
10299;SDS011;5195;48.562;9.192;2022-12-18T11:09:59;39.73;;;23.20;;
10299;SDS011;5195;48.562;9.192;2022-12-18T11:12:26;34.73;;;22.40;;
10299;SDS011;5195;48.562;9.192;2022-12-18T11:15:02;42.33;;;32.37;;
10299;SDS011;5195;48.562;9.192;2022-12-18T11:17:38;42.20;;;28.27;;
10299;SDS011;5195;48.562;9.192;2022-12-18T11:22:56;53.20;;;30.53;;
10299;SDS011;5195;48.562;9.192;2022-12-18T11:25:31;52.87;;;37.80;;
10299;SDS011;5195;48.562;9.192;2022-12-18T11:31:12;49.03;;;37.87;;
10299;SDS011;5195;48.562;9.192;2022-12-18T11:34:10;43.63;;;28.23;;
10299;SDS011;5195;48.562;9.192;2022-12-18T11:36:42;43.43;;;32.63;;
10299;SDS011;5195;48.562;9.192;2022-12-18T11:42:17;46.78;;;35.38;;
10299;SDS011;5195;48.562;9.192;2022-12-18T11:44:58;43.73;;;29.10;;
10299;SDS011;5195;48.562;9.192;2022-12-18T11:50:18;34.93;;;22.90;;
10299;SDS011;5195;48.562;9.192;2022-12-18T11:52:52;42.27;;;26.27;;
10299;SDS011;5195;48.562;9.192;2022-12-18T12:01:04;39.13;;;31.20;;
10299;SDS011;5195;48.562;9.192;2022-12-18T12:12:37;37.53;;;25.23;;
10299;SDS011;5195;48.562;9.192;2022-12-18T12:15:13;41.53;;;27.03;;
10299;SDS011;5195;48.562;9.192;2022-12-18T12:17:50;39.10;;;24.07;;
10299;SDS011;5195;48.562;9.192;2022-12-18T12:24:00;48.07;;;31.47;;
10299;SDS011;5195;48.562;9.192;2022-12-18T12:29:28;45.37;;;29.03;;
10299;SDS011;5195;48.562;9.192;2022-12-18T12:32:07;51.93;;;38.43;;
10299;SDS011;5195;48.562;9.192;2022-12-18T12:34:50;44.10;;;30.07;;
10299;SDS011;5195;48.562;9.192;2022-12-18T12:40:39;47.23;;;31.60;;
10299;SDS011;5195;48.562;9.192;2022-12-18T12:43:20;45.07;;;28.43;;
10299;SDS011;5195;48.562;9.192;2022-12-18T12:46:05;41.53;;;30.23;;
10299;SDS011;5195;48.562;9.192;2022-12-18T12:48:41;49.43;;;38.27;;
10299;SDS011;5195;48.562;9.192;2022-12-18T12:51:21;39.65;;;32.35;;
10299;SDS011;5195;48.562;9.192;2022-12-18T12:53:56;38.77;;;29.83;;
10299;SDS011;5195;48.562;9.192;2022-12-18T12:56:43;39.77;;;25.23;;
10299;SDS011;5195;48.562;9.192;2022-12-18T13:04:58;36.60;;;25.47;;
10299;SDS011;5195;48.562;9.192;2022-12-18T13:07:54;40.40;;;30.13;;
10299;SDS011;5195;48.562;9.192;2022-12-18T13:10:33;42.37;;;27.33;;
10299;SDS011;5195;48.562;9.192;2022-12-18T13:13:08;37.30;;;24.93;;
10299;SDS011;5195;48.562;9.192;2022-12-18T13:18:19;43.47;;;26.10;;
10299;SDS011;5195;48.562;9.192;2022-12-18T13:23:31;47.67;;;34.53;;
10299;SDS011;5195;48.562;9.192;2022-12-18T13:34:23;41.77;;;26.73;;
10299;SDS011;5195;48.562;9.192;2022-12-18T13:40:45;49.50;;;33.47;;
10299;SDS011;5195;48.562;9.192;2022-12-18T13:45:59;57.33;;;43.87;;
10299;SDS011;5195;48.562;9.192;2022-12-18T13:48:37;72.70;;;50.83;;
10299;SDS011;5195;48.562;9.192;2022-12-18T13:51:13;54.83;;;37.43;;
10299;SDS011;5195;48.562;9.192;2022-12-18T13:53:53;61.17;;;45.30;;
10299;SDS011;5195;48.562;9.192;2022-12-18T13:56:28;55.03;;;36.80;;
10299;SDS011;5195;48.562;9.192;2022-12-18T13:59:49;59.90;;;38.03;;
10299;SDS011;5195;48.562;9.192;2022-12-18T14:01:52;57.07;;;35.00;;
10299;SDS011;5195;48.562;9.192;2022-12-18T14:04:28;60.43;;;45.20;;
10299;SDS011;5195;48.562;9.192;2022-12-18T14:09:58;57.92;;;44.15;;
10299;SDS011;5195;48.562;9.192;2022-12-18T14:12:33;60.15;;;46.53;;
10299;SDS011;5195;48.562;9.192;2022-12-18T14:15:38;69.30;;;40.57;;
10299;SDS011;5195;48.562;9.192;2022-12-18T14:20:58;50.77;;;34.57;;
10299;SDS011;5195;48.562;9.192;2022-12-18T14:23:38;52.67;;;33.83;;
10299;SDS011;5195;48.562;9.192;2022-12-18T14:28:59;57.40;;;43.92;;
10299;SDS011;5195;48.562;9.192;2022-12-18T14:31:34;60.35;;;46.75;;
10299;SDS011;5195;48.562;9.192;2022-12-18T14:34:14;71.97;;;58.20;;
10299;SDS011;5195;48.562;9.192;2022-12-18T14:36:52;65.33;;;50.87;;
10299;SDS011;5195;48.562;9.192;2022-12-18T14:39:28;57.87;;;38.97;;
10299;SDS011;5195;48.562;9.192;2022-12-18T14:42:03;55.17;;;34.83;;
10299;SDS011;5195;48.562;9.192;2022-12-18T14:44:39;60.23;;;45.40;;
10299;SDS011;5195;48.562;9.192;2022-12-18T14:47:15;59.93;;;45.93;;
10299;SDS011;5195;48.562;9.192;2022-12-18T14:49:51;57.70;;;44.63;;
10299;SDS011;5195;48.562;9.192;2022-12-18T14:52:27;52.20;;;35.20;;
10299;SDS011;5195;48.562;9.192;2022-12-18T14:55:04;62.97;;;46.33;;
10299;SDS011;5195;48.562;9.192;2022-12-18T14:57:42;57.92;;;46.22;;
10299;SDS011;5195;48.562;9.192;2022-12-18T15:00:18;62.40;;;49.50;;
10299;SDS011;5195;48.562;9.192;2022-12-18T15:02:54;57.30;;;44.33;;
10299;SDS011;5195;48.562;9.192;2022-12-18T15:05:31;54.87;;;44.10;;
10299;SDS011;5195;48.562;9.192;2022-12-18T15:08:25;55.42;;;44.03;;
10299;SDS011;5195;48.562;9.192;2022-12-18T15:10:46;62.93;;;47.37;;
10299;SDS011;5195;48.562;9.192;2022-12-18T15:13:21;66.87;;;47.95;;
10299;SDS011;5195;48.562;9.192;2022-12-18T15:15:57;60.10;;;40.73;;
10299;SDS011;5195;48.562;9.192;2022-12-18T15:18:32;51.77;;;34.13;;
10299;SDS011;5195;48.562;9.192;2022-12-18T15:21:09;87.70;;;43.63;;
10299;SDS011;5195;48.562;9.192;2022-12-18T15:26:21;64.67;;;36.13;;
10299;SDS011;5195;48.562;9.192;2022-12-18T15:28:57;111.43;;;56.03;;
10299;SDS011;5195;48.562;9.192;2022-12-18T15:31:32;82.70;;;43.47;;
10299;SDS011;5195;48.562;9.192;2022-12-18T15:36:44;53.77;;;30.97;;
10299;SDS011;5195;48.562;9.192;2022-12-18T15:39:19;52.05;;;37.70;;
10299;SDS011;5195;48.562;9.192;2022-12-18T15:41:55;47.90;;;35.93;;
10299;SDS011;5195;48.562;9.192;2022-12-18T15:44:50;50.17;;;36.63;;
10299;SDS011;5195;48.562;9.192;2022-12-18T15:47:26;45.97;;;35.47;;
10299;SDS011;5195;48.562;9.192;2022-12-18T15:50:01;42.90;;;29.13;;
10299;SDS011;5195;48.562;9.192;2022-12-18T15:52:44;41.37;;;28.00;;
10299;SDS011;5195;48.562;9.192;2022-12-18T15:55:20;45.87;;;35.00;;
10299;SDS011;5195;48.562;9.192;2022-12-18T15:58:14;49.63;;;38.20;;
10299;SDS011;5195;48.562;9.192;2022-12-18T16:00:50;46.05;;;36.00;;
10299;SDS011;5195;48.562;9.192;2022-12-18T16:03:26;44.83;;;35.53;;
10299;SDS011;5195;48.562;9.192;2022-12-18T16:06:01;41.43;;;28.60;;
10299;SDS011;5195;48.562;9.192;2022-12-18T16:08:37;43.67;;;34.87;;
10299;SDS011;5195;48.562;9.192;2022-12-18T16:11:20;42.73;;;29.70;;
10299;SDS011;5195;48.562;9.192;2022-12-18T16:13:52;44.30;;;34.55;;
10299;SDS011;5195;48.562;9.192;2022-12-18T16:16:28;44.23;;;34.90;;
10299;SDS011;5195;48.562;9.192;2022-12-18T16:19:03;44.28;;;33.78;;
10299;SDS011;5195;48.562;9.192;2022-12-18T16:21:39;44.33;;;35.80;;
10299;SDS011;5195;48.562;9.192;2022-12-18T16:24:17;47.95;;;37.35;;
10299;SDS011;5195;48.562;9.192;2022-12-18T16:26:51;44.30;;;35.30;;
10299;SDS011;5195;48.562;9.192;2022-12-18T16:29:27;45.35;;;36.30;;
10299;SDS011;5195;48.562;9.192;2022-12-18T16:32:02;41.57;;;29.70;;
10299;SDS011;5195;48.562;9.192;2022-12-18T16:34:38;49.57;;;37.53;;
10299;SDS011;5195;48.562;9.192;2022-12-18T16:37:14;52.23;;;36.73;;
10299;SDS011;5195;48.562;9.192;2022-12-18T16:39:49;48.53;;;37.57;;
10299;SDS011;5195;48.562;9.192;2022-12-18T16:42:25;41.97;;;32.53;;
10299;SDS011;5195;48.562;9.192;2022-12-18T16:45:01;40.37;;;31.47;;
10299;SDS011;5195;48.562;9.192;2022-12-18T16:47:37;38.43;;;24.73;;
10299;SDS011;5195;48.562;9.192;2022-12-18T16:50:13;41.88;;;30.70;;
10299;SDS011;5195;48.562;9.192;2022-12-18T16:52:49;40.97;;;30.37;;
10299;SDS011;5195;48.562;9.192;2022-12-18T16:55:25;39.90;;;25.20;;
10299;SDS011;5195;48.562;9.192;2022-12-18T16:58:00;32.23;;;22.03;;
10299;SDS011;5195;48.562;9.192;2022-12-18T17:00:37;39.63;;;29.10;;
10299;SDS011;5195;48.562;9.192;2022-12-18T17:03:13;38.42;;;29.58;;
10299;SDS011;5195;48.562;9.192;2022-12-18T17:05:49;35.47;;;22.97;;
10299;SDS011;5195;48.562;9.192;2022-12-18T17:08:24;40.87;;;29.47;;
10299;SDS011;5195;48.562;9.192;2022-12-18T17:11:04;38.27;;;29.53;;
10299;SDS011;5195;48.562;9.192;2022-12-18T17:13:40;38.35;;;29.20;;
10299;SDS011;5195;48.562;9.192;2022-12-18T17:16:15;34.53;;;23.53;;
10299;SDS011;5195;48.562;9.192;2022-12-18T17:18:51;35.30;;;22.03;;
10299;SDS011;5195;48.562;9.192;2022-12-18T17:21:27;39.63;;;29.57;;
10299;SDS011;5195;48.562;9.192;2022-12-18T17:24:03;38.30;;;23.67;;
10299;SDS011;5195;48.562;9.192;2022-12-18T17:26:39;36.90;;;21.97;;
10299;SDS011;5195;48.562;9.192;2022-12-18T17:29:18;39.73;;;30.37;;